Albany, Georgia
Current Conditions -  °F | °C
As of 1:53 AM on Monday 22 Dec 2014 (Local Time) from KABY Reporting Station
Haze Haze  
Wind Chill: 47°   Ceiling: 200
Heat Index: 49°   Visibility: 1.7mi
Dew Point: 49°   Wind: 6mph
Humidity: 100%   Direction: 30°NNE
Pressure: 30.05"   Gusts: NA
Location:  31.58°N, 84.15°W
Report Text: KABY 220653Z 03005KT 1 3/4SM BR OVC002 09/09 A3005 RMK AO2 SLP175 T00940094
Loading
Personal Weather Stations






























Interactive Weather Map New forecast layout! Learn more

10-Day Weather Forecast

Advertisements
Track Severe Weather on mobile